createdAt,value
2022-12-01T00:01:21.915Z,-11.13
2022-12-01T00:03:49.707Z,-11.05
2022-12-01T00:06:20.200Z,-11.10
2022-12-01T00:09:08.932Z,-11.08
2022-12-01T00:11:38.867Z,-11.10
2022-12-01T00:14:06.737Z,-11.08
2022-12-01T00:16:34.671Z,-11.11
2022-12-01T00:19:02.299Z,-11.08
2022-12-01T00:21:30.050Z,-11.60
2022-12-01T00:23:58.470Z,-11.04
2022-12-01T00:26:27.739Z,-11.06
2022-12-01T00:28:59.967Z,-11.05
2022-12-01T00:31:27.658Z,-11.07
2022-12-01T00:33:56.082Z,-11.07
2022-12-01T00:36:24.575Z,-11.12
2022-12-01T00:38:54.080Z,-11.14
2022-12-01T00:41:22.224Z,-11.16
2022-12-01T00:43:51.032Z,-11.29
2022-12-01T00:46:18.837Z,-11.23
2022-12-01T00:48:46.244Z,-12.34
2022-12-01T00:51:13.804Z,-11.75
2022-12-01T00:53:41.472Z,-11.28
2022-12-01T00:56:08.736Z,-11.32
2022-12-01T00:58:36.924Z,-11.93
2022-12-01T01:01:04.512Z,-11.40
2022-12-01T01:03:33.882Z,-11.35
2022-12-01T01:06:10.943Z,-11.30
2022-12-01T01:08:39.057Z,-11.33
2022-12-01T01:11:07.339Z,-11.34
2022-12-01T01:13:36.015Z,-11.55
2022-12-01T01:16:08.026Z,-11.35
2022-12-01T01:18:35.775Z,-11.34
2022-12-01T01:21:09.707Z,-11.37
2022-12-01T01:23:39.006Z,-11.35
2022-12-01T01:26:21.169Z,-11.38
2022-12-01T01:28:49.996Z,-11.39
2022-12-01T01:31:20.635Z,-11.45
2022-12-01T01:33:49.066Z,-12.58
2022-12-01T01:36:17.659Z,-11.45
2022-12-01T01:38:45.089Z,-11.47
2022-12-01T01:41:13.141Z,-11.44
2022-12-01T01:43:58.279Z,-11.47
2022-12-01T01:46:30.366Z,-11.45
2022-12-01T01:49:10.515Z,-11.45
2022-12-01T01:51:53.137Z,-11.46
2022-12-01T01:54:36.711Z,-11.47
2022-12-01T01:57:07.190Z,-11.46
2022-12-01T01:59:40.151Z,-11.52
2022-12-01T02:02:10.496Z,-11.53
2022-12-01T02:04:49.259Z,-11.50
2022-12-01T02:07:19.456Z,-11.48
2022-12-01T02:09:47.474Z,-11.51
2022-12-01T02:12:17.490Z,-11.49
2022-12-01T02:14:48.558Z,-11.50
2022-12-01T02:17:42.926Z,-11.54
2022-12-01T02:20:28.621Z,-11.57
2022-12-01T02:23:39.781Z,-11.62
2022-12-01T02:26:13.324Z,-11.65
2022-12-01T02:28:52.437Z,-11.67
2022-12-01T02:31:29.343Z,-11.75
2022-12-01T02:34:06.119Z,-11.75
2022-12-01T02:36:46.452Z,-11.74
2022-12-01T02:39:13.874Z,-11.74
2022-12-01T02:41:51.702Z,-11.86
2022-12-01T02:44:33.579Z,-11.81
2022-12-01T02:47:12.095Z,-12.93
2022-12-01T02:49:48.783Z,-11.88
2022-12-01T02:52:17.818Z,-11.85
2022-12-01T02:54:47.405Z,-11.88
2022-12-01T02:57:16.512Z,-11.80
2022-12-01T02:59:49.395Z,-11.78
2022-12-01T03:02:53.262Z,-11.80
2022-12-01T03:05:45.458Z,-11.81
2022-12-01T03:08:26.868Z,-11.81
2022-12-01T03:10:58.080Z,-11.88
2022-12-01T03:13:41.104Z,-11.83
2022-12-01T03:16:24.388Z,-11.90
2022-12-01T03:19:07.623Z,-12.59
2022-12-01T03:22:13.868Z,-11.84
2022-12-01T03:24:44.637Z,-11.98
2022-12-01T03:27:15.536Z,-11.89
2022-12-01T03:29:46.821Z,-11.89
2022-12-01T03:32:41.590Z,-11.88
2022-12-01T03:35:14.850Z,-11.89
2022-12-01T03:38:07.220Z,-11.84
2022-12-01T03:40:38.921Z,-11.81
2022-12-01T03:43:14.109Z,-11.76
2022-12-01T03:45:41.551Z,-11.73
2022-12-01T03:48:09.394Z,-11.67
2022-12-01T03:51:04.929Z,-11.64
2022-12-01T03:53:55.169Z,-11.66
2022-12-01T03:56:27.322Z,-11.64
2022-12-01T03:58:58.316Z,-11.58
2022-12-01T04:01:28.089Z,-11.53
2022-12-01T04:03:55.589Z,-11.53
2022-12-01T04:06:22.920Z,-11.54
2022-12-01T04:08:50.751Z,-11.53
2022-12-01T04:11:36.650Z,-11.53
2022-12-01T04:14:04.464Z,-11.58
2022-12-01T04:16:32.077Z,-11.64
2022-12-01T04:19:00.157Z,-11.56
2022-12-01T04:21:27.827Z,-11.57
2022-12-01T04:24:01.256Z,-11.62
2022-12-01T04:26:31.360Z,-11.55
2022-12-01T04:29:00.407Z,-11.60
2022-12-01T04:31:28.706Z,-11.54
2022-12-01T04:33:57.834Z,-11.54
2022-12-01T04:36:26.143Z,-12.08
2022-12-01T04:38:53.894Z,-11.53
2022-12-01T04:41:21.824Z,-11.59
2022-12-01T04:43:49.195Z,-11.72
2022-12-01T04:46:16.938Z,-11.56
2022-12-01T04:48:46.348Z,-11.57
2022-12-01T04:51:13.971Z,-11.62
2022-12-01T04:53:41.534Z,-11.75
2022-12-01T04:56:09.187Z,-11.55
2022-12-01T04:58:40.312Z,-12.07
2022-12-01T05:01:11.332Z,-11.68
2022-12-01T05:03:44.674Z,-11.56
2022-12-01T05:06:16.129Z,-11.52
2022-12-01T05:08:43.652Z,-11.52
2022-12-01T05:11:12.679Z,-11.54
2022-12-01T05:13:43.147Z,-11.46
2022-12-01T05:16:13.851Z,-11.45
2022-12-01T05:18:41.415Z,-12.16
2022-12-01T05:21:11.334Z,-12.75
2022-12-01T05:23:40.031Z,-12.05
2022-12-01T05:26:11.023Z,-11.22
2022-12-01T05:28:41.246Z,-11.15
2022-12-01T05:31:08.924Z,-11.09
2022-12-01T05:33:36.674Z,-11.08
2022-12-01T05:36:04.627Z,-11.04
2022-12-01T05:38:32.129Z,-11.66
2022-12-01T05:40:59.686Z,-11.16
2022-12-01T05:43:29.687Z,-10.92
2022-12-01T05:45:58.229Z,-10.86
2022-12-01T05:48:26.112Z,-10.86
2022-12-01T05:50:54.092Z,-10.82
2022-12-01T05:53:21.930Z,-11.37
2022-12-01T05:55:55.660Z,-10.69
2022-12-01T05:58:23.024Z,-10.55
2022-12-01T06:00:50.447Z,-10.49
2022-12-01T06:03:18.347Z,-10.98
2022-12-01T06:05:45.658Z,-10.27
2022-12-01T06:08:13.360Z,-10.28
2022-12-01T06:10:40.998Z,-10.06
2022-12-01T06:13:08.708Z,-9.94
2022-12-01T06:15:36.311Z,-10.39
2022-12-01T06:18:04.178Z,-9.79
2022-12-01T06:20:31.666Z,-9.70
2022-12-01T06:22:59.916Z,-10.09
2022-12-01T06:25:27.728Z,-9.48
2022-12-01T06:27:58.808Z,-9.37
2022-12-01T06:30:26.168Z,-9.35
2022-12-01T06:32:53.576Z,-9.21
2022-12-01T06:35:21.035Z,-9.18
2022-12-01T06:37:48.913Z,-9.55
2022-12-01T06:40:16.886Z,-9.02
2022-12-01T06:42:44.358Z,-8.99
2022-12-01T06:45:12.172Z,-9.00
2022-12-01T06:47:40.629Z,-9.29
2022-12-01T06:50:10.147Z,-9.34
2022-12-01T06:52:38.771Z,-8.62
2022-12-01T06:55:07.128Z,-8.61
2022-12-01T06:57:35.093Z,-9.00
2022-12-01T07:00:03.953Z,-8.62
2022-12-01T07:02:33.312Z,-8.40
2022-12-01T07:05:01.035Z,-8.31
2022-12-01T07:07:29.819Z,-8.19
2022-12-01T07:09:57.478Z,-8.12
2022-12-01T07:12:25.100Z,-8.05
2022-12-01T07:14:52.447Z,-8.01
2022-12-01T07:17:20.496Z,-7.93
2022-12-01T07:19:48.477Z,-7.84
2022-12-01T07:22:16.109Z,-7.70
2022-12-01T07:24:43.779Z,-8.06
2022-12-01T07:27:11.380Z,-7.53
2022-12-01T07:29:38.612Z,-7.45
2022-12-01T07:32:06.250Z,-7.44
2022-12-01T07:34:34.052Z,-7.37
2022-12-01T07:37:01.447Z,-7.30
2022-12-01T07:39:29.087Z,-7.28
2022-12-01T07:41:56.915Z,-7.24
2022-12-01T07:44:24.291Z,-7.17
2022-12-01T07:46:51.964Z,-7.76
2022-12-01T07:49:19.624Z,-7.66
2022-12-01T07:51:47.174Z,-7.58
2022-12-01T07:54:15.439Z,-6.82
2022-12-01T07:56:42.747Z,-6.68
2022-12-01T07:59:10.229Z,-7.18
2022-12-01T08:01:44.679Z,-6.54
2022-12-01T08:04:13.123Z,-6.90
2022-12-01T08:06:41.252Z,-6.53
2022-12-01T08:09:08.550Z,-6.40
2022-12-01T08:11:36.361Z,-6.40
2022-12-01T08:14:04.065Z,-6.48
2022-12-01T08:16:31.658Z,-6.56
2022-12-01T08:18:59.875Z,-6.64
2022-12-01T08:21:27.486Z,-6.68
2022-12-01T08:23:57.163Z,-6.64
2022-12-01T08:26:27.024Z,-6.61
2022-12-01T08:28:54.842Z,-6.57
2022-12-01T08:31:26.851Z,-6.47
2022-12-01T08:33:55.085Z,-6.33
2022-12-01T08:36:23.265Z,-6.38
2022-12-01T08:38:53.087Z,-6.15
2022-12-01T08:41:21.821Z,-6.01
2022-12-01T08:43:58.269Z,-5.87
2022-12-01T08:46:32.784Z,-6.19
2022-12-01T08:49:01.144Z,-5.82
2022-12-01T08:51:29.030Z,-5.98
2022-12-01T08:53:59.769Z,-5.98
2022-12-01T08:56:33.899Z,-6.08
2022-12-01T08:59:02.645Z,-6.15
2022-12-01T09:01:30.153Z,-6.96
2022-12-01T09:04:06.355Z,-6.30
2022-12-01T09:06:45.907Z,-6.34
2022-12-01T09:09:16.785Z,-6.37
2022-12-01T09:11:45.589Z,-6.37
2022-12-01T09:14:14.528Z,-6.38
2022-12-01T09:16:43.673Z,-6.40
2022-12-01T09:19:13.212Z,-6.37
2022-12-01T09:21:42.845Z,-7.39
2022-12-01T09:24:13.004Z,-6.43
2022-12-01T09:26:41.617Z,-6.40
2022-12-01T09:29:12.871Z,-6.69
2022-12-01T09:31:41.907Z,-6.72
2022-12-01T09:34:13.540Z,-6.72
2022-12-01T09:36:41.015Z,-6.68
2022-12-01T09:39:13.366Z,-6.75
2022-12-01T09:41:59.908Z,-6.71
2022-12-01T09:44:58.447Z,-6.71
2022-12-01T09:47:34.346Z,-6.87
2022-12-01T09:50:04.968Z,-6.72
2022-12-01T09:53:04.904Z,-6.64
2022-12-01T09:55:34.433Z,-6.62
2022-12-01T09:58:04.144Z,-6.67
2022-12-01T10:00:37.263Z,-6.66
2022-12-01T10:03:30.593Z,-6.56
2022-12-01T10:06:29.345Z,-6.45
2022-12-01T10:09:21.083Z,-6.50
2022-12-01T10:11:51.308Z,-6.41
2022-12-01T10:14:21.276Z,-6.40
2022-12-01T10:16:56.346Z,-6.40
2022-12-01T10:19:53.235Z,-6.27
2022-12-01T10:22:45.890Z,-6.38
2022-12-01T10:25:24.389Z,-6.41
2022-12-01T10:28:07.291Z,-6.54
2022-12-01T10:30:40.219Z,-6.51
2022-12-01T10:33:34.874Z,-6.41
2022-12-01T10:36:02.588Z,-6.82
2022-12-01T10:38:35.744Z,-6.17
2022-12-01T10:41:06.967Z,-6.45
2022-12-01T10:43:44.882Z,-5.87
2022-12-01T10:46:27.544Z,-6.67
2022-12-01T10:49:00.571Z,-5.83
2022-12-01T10:51:28.604Z,-5.62
2022-12-01T10:54:12.140Z,-5.69
2022-12-01T10:56:41.846Z,-5.72
2022-12-01T10:59:31.608Z,-5.80
2022-12-01T11:02:00.825Z,-5.73
2022-12-01T11:04:51.639Z,-5.72
2022-12-01T11:07:23.165Z,-5.87
2022-12-01T11:10:16.725Z,-5.64
2022-12-01T11:12:52.423Z,-5.65
2022-12-01T11:15:24.448Z,-5.73
2022-12-01T11:18:23.828Z,-5.90
2022-12-01T11:21:14.473Z,-5.94
2022-12-01T11:23:50.072Z,-6.02
2022-12-01T11:26:21.393Z,-6.02
2022-12-01T11:28:55.331Z,-5.94
2022-12-01T11:31:28.648Z,-5.96
2022-12-01T11:33:56.884Z,-6.97
2022-12-01T11:36:46.551Z,-6.69
2022-12-01T11:39:44.842Z,-6.07
2022-12-01T11:42:12.579Z,-6.00
2022-12-01T11:44:51.982Z,-6.56
2022-12-01T11:47:24.390Z,-6.18
2022-12-01T11:50:01.178Z,-6.28
2022-12-01T11:52:36.994Z,-6.97
2022-12-01T11:55:13.308Z,-6.59
2022-12-01T11:57:42.357Z,-6.85
2022-12-01T12:00:14.542Z,-6.79
2022-12-01T12:03:07.053Z,-6.81
2022-12-01T12:06:01.481Z,-7.87
2022-12-01T12:09:03.307Z,-6.77
2022-12-01T12:11:34.100Z,-6.78
2022-12-01T12:14:30.117Z,-6.78
2022-12-01T12:17:16.445Z,-6.78
2022-12-01T12:22:56.275Z,-6.95
2022-12-01T12:25:29.718Z,-7.19
2022-12-01T12:28:09.603Z,-7.34
2022-12-01T12:30:57.508Z,-7.47
2022-12-01T12:33:43.973Z,-8.20
2022-12-01T12:36:36.147Z,-7.63
2022-12-01T12:39:28.498Z,-8.43
2022-12-01T12:41:58.201Z,-7.82
2022-12-01T12:44:37.922Z,-7.83
2022-12-01T12:47:15.062Z,-7.85
2022-12-01T12:49:46.800Z,-7.81
2022-12-01T12:52:19.659Z,-7.84
2022-12-01T12:54:56.440Z,-7.82
2022-12-01T12:57:32.813Z,-7.99
2022-12-01T13:00:03.080Z,-7.92
2022-12-01T13:02:42.004Z,-8.49
2022-12-01T13:05:16.640Z,-7.82
2022-12-01T13:07:59.047Z,-7.84
2022-12-01T13:10:48.978Z,-7.86
2022-12-01T13:13:16.263Z,-8.49
2022-12-01T13:15:44.254Z,-8.10
2022-12-01T13:18:23.570Z,-8.04
2022-12-01T13:20:52.396Z,-8.43
2022-12-01T13:23:22.109Z,-8.07
2022-12-01T13:25:55.004Z,-8.10
2022-12-01T13:28:26.533Z,-8.07
2022-12-01T13:31:01.565Z,-8.11
2022-12-01T13:33:29.701Z,-8.08
2022-12-01T13:36:29.849Z,-8.07
2022-12-01T13:39:17.904Z,-8.12
2022-12-01T13:41:46.699Z,-8.20
2022-12-01T13:44:27.531Z,-8.23
2022-12-01T13:47:08.907Z,-8.32
2022-12-01T13:49:42.685Z,-8.24
2022-12-01T13:52:23.548Z,-8.24
2022-12-01T13:55:12.671Z,-8.20
2022-12-01T13:57:45.060Z,-8.17
2022-12-01T14:00:33.051Z,-8.30
2022-12-01T14:03:15.328Z,-8.27
2022-12-01T14:05:42.943Z,-8.31
2022-12-01T14:08:21.404Z,-8.33
2022-12-01T14:11:01.962Z,-8.31
2022-12-01T14:13:32.749Z,-9.17
2022-12-01T14:16:03.661Z,-8.27
2022-12-01T14:18:43.036Z,-8.32
2022-12-01T14:21:13.017Z,-8.35
2022-12-01T14:24:00.945Z,-8.49
2022-12-01T14:26:30.608Z,-9.13
2022-12-01T14:29:01.170Z,-8.46
2022-12-01T14:31:34.766Z,-8.48
2022-12-01T14:34:18.897Z,-8.52
2022-12-01T14:36:50.006Z,-8.75
2022-12-01T14:39:38.726Z,-8.58
2022-12-01T14:42:49.235Z,-8.62
2022-12-01T14:45:22.556Z,-8.61
2022-12-01T14:48:00.023Z,-8.53
2022-12-01T14:50:43.681Z,-9.85
2022-12-01T14:53:33.175Z,-8.50
2022-12-01T14:56:10.235Z,-8.51
2022-12-01T14:58:37.860Z,-8.72
2022-12-01T15:01:12.273Z,-8.66
2022-12-01T15:03:47.654Z,-9.77
2022-12-01T15:06:23.177Z,-8.92
2022-12-01T15:09:33.554Z,-8.67
2022-12-01T15:12:04.980Z,-8.68
2022-12-01T15:14:32.863Z,-8.64
2022-12-01T15:17:00.370Z,-8.65
2022-12-01T15:19:34.365Z,-8.67
2022-12-01T15:22:13.789Z,-8.71
2022-12-01T15:24:41.866Z,-8.75
2022-12-01T15:27:29.132Z,-8.76
2022-12-01T15:29:58.695Z,-10.27
2022-12-01T15:32:27.312Z,-8.71
2022-12-01T15:34:57.009Z,-8.69
2022-12-01T15:37:27.917Z,-8.68
2022-12-01T15:43:06.680Z,-8.58
2022-12-01T15:45:57.985Z,-8.66
2022-12-01T15:48:33.413Z,-8.72
2022-12-01T15:51:16.405Z,-8.90
2022-12-01T15:54:02.903Z,-8.70
2022-12-01T15:56:34.952Z,-8.70
2022-12-01T15:59:07.072Z,-8.67
2022-12-01T16:01:35.935Z,-8.69
2022-12-01T16:04:19.468Z,-8.81
2022-12-01T16:07:00.659Z,-8.95
2022-12-01T16:09:33.695Z,-8.93
2022-12-01T16:12:24.019Z,-9.00
2022-12-01T16:14:56.253Z,-8.99
2022-12-01T16:17:24.684Z,-9.09
2022-12-01T16:20:18.369Z,-9.08
2022-12-01T16:22:56.856Z,-9.04
2022-12-01T16:25:37.556Z,-9.05
2022-12-01T16:28:06.817Z,-9.23
2022-12-01T16:30:39.073Z,-8.96
2022-12-01T16:33:18.111Z,-8.96
2022-12-01T16:35:46.234Z,-8.97
2022-12-01T16:38:20.913Z,-8.99
2022-12-01T16:41:12.826Z,-8.97
2022-12-01T16:43:46.839Z,-9.01
2022-12-01T16:46:27.313Z,-9.57
2022-12-01T16:48:54.851Z,-9.00
2022-12-01T16:51:35.411Z,-10.35
2022-12-01T16:54:10.711Z,-8.93
2022-12-01T16:56:38.693Z,-8.92
2022-12-01T16:59:05.936Z,-9.11
2022-12-01T17:01:33.770Z,-8.91
2022-12-01T17:04:06.097Z,-8.90
2022-12-01T17:06:36.290Z,-9.02
2022-12-01T17:09:03.643Z,-9.15
2022-12-01T17:11:30.797Z,-9.15
2022-12-01T17:13:58.416Z,-9.18
2022-12-01T17:16:25.947Z,-9.11
2022-12-01T17:18:53.442Z,-9.18
2022-12-01T17:21:21.067Z,-9.28
2022-12-01T17:23:48.574Z,-9.38
2022-12-01T17:26:19.446Z,-9.67
2022-12-01T17:28:47.144Z,-9.39
2022-12-01T17:31:14.911Z,-9.39
2022-12-01T17:33:42.457Z,-9.38
2022-12-01T17:36:14.562Z,-9.46
2022-12-01T17:38:44.987Z,-9.42
2022-12-01T17:41:22.060Z,-9.44
2022-12-01T17:43:49.661Z,-9.51
2022-12-01T17:46:17.508Z,-9.66
2022-12-01T17:48:46.819Z,-9.60
2022-12-01T17:51:15.268Z,-9.65
2022-12-01T17:53:42.800Z,-9.59
2022-12-01T17:56:13.648Z,-9.70
2022-12-01T17:58:42.079Z,-9.65
2022-12-01T18:01:19.282Z,-9.59
2022-12-01T18:03:48.034Z,-9.56
2022-12-01T18:06:17.413Z,-9.64
2022-12-01T18:08:45.324Z,-9.62
2022-12-01T18:11:15.352Z,-9.72
2022-12-01T18:13:48.395Z,-9.63
2022-12-01T18:16:24.803Z,-9.68
2022-12-01T18:18:53.218Z,-9.67
2022-12-01T18:21:25.700Z,-11.11
2022-12-01T18:23:56.374Z,-9.80
2022-12-01T18:26:24.921Z,-9.50
2022-12-01T18:28:57.330Z,-9.42
2022-12-01T18:31:25.198Z,-10.03
2022-12-01T18:33:53.213Z,-9.42
2022-12-01T18:36:23.589Z,-9.45
2022-12-01T18:38:52.457Z,-10.45
2022-12-01T18:41:20.914Z,-9.45
2022-12-01T18:43:48.614Z,-9.75
2022-12-01T18:46:17.376Z,-9.45
2022-12-01T18:48:46.914Z,-10.11
2022-12-01T18:51:15.083Z,-9.43
2022-12-01T18:53:45.487Z,-10.09
2022-12-01T18:56:15.231Z,-9.49
2022-12-01T18:58:43.372Z,-9.46
2022-12-01T19:01:28.723Z,-9.45
2022-12-01T19:03:57.063Z,-9.46
2022-12-01T19:06:26.090Z,-9.88
2022-12-01T19:08:54.184Z,-9.72
2022-12-01T19:11:23.084Z,-9.54
2022-12-01T19:13:50.747Z,-9.56
2022-12-01T19:16:20.024Z,-10.68
2022-12-01T19:18:48.264Z,-9.67
2022-12-01T19:21:17.818Z,-9.74
2022-12-01T19:23:46.605Z,-9.86
2022-12-01T19:26:17.081Z,-9.86
2022-12-01T19:28:48.133Z,-9.92
2022-12-01T19:31:19.451Z,-10.06
2022-12-01T19:33:47.442Z,-9.97
2022-12-01T19:36:19.598Z,-10.02
2022-12-01T19:38:47.717Z,-10.53
2022-12-01T19:41:15.931Z,-10.03
2022-12-01T19:43:43.686Z,-10.08
2022-12-01T19:46:14.052Z,-10.16
2022-12-01T19:48:41.765Z,-9.92
2022-12-01T19:51:19.825Z,-10.11
2022-12-01T19:53:48.211Z,-9.94
2022-12-01T19:56:16.095Z,-10.02
2022-12-01T19:58:46.907Z,-10.20
2022-12-01T20:01:16.704Z,-10.11
2022-12-01T20:03:52.500Z,-10.47
2022-12-01T20:06:24.158Z,-10.70
2022-12-01T20:08:52.177Z,-10.27
2022-12-01T20:11:19.885Z,-10.27
2022-12-01T20:13:48.096Z,-10.32
2022-12-01T20:16:19.002Z,-10.40
2022-12-01T20:18:48.065Z,-10.74
2022-12-01T20:21:21.304Z,-10.30
2022-12-01T20:23:51.187Z,-10.82
2022-12-01T20:26:20.033Z,-10.33
2022-12-01T20:28:50.263Z,-10.35
2022-12-01T20:31:29.147Z,-10.34
2022-12-01T20:33:58.478Z,-10.33
2022-12-01T20:36:26.948Z,-10.31
2022-12-01T20:38:55.163Z,-10.51
2022-12-01T20:41:23.295Z,-10.24
2022-12-01T20:43:50.849Z,-10.25
2022-12-01T20:46:18.324Z,-10.39
2022-12-01T20:48:45.884Z,-10.19
2022-12-01T20:51:14.341Z,-10.21
2022-12-01T20:53:59.607Z,-10.22
2022-12-01T20:56:30.495Z,-10.35
2022-12-01T20:58:58.770Z,-10.84
2022-12-01T21:01:26.517Z,-10.41
2022-12-01T21:03:55.057Z,-11.52
2022-12-01T21:06:22.570Z,-11.31
2022-12-01T21:08:50.827Z,-10.41
2022-12-01T21:11:41.060Z,-10.42
2022-12-01T21:14:16.795Z,-10.51
2022-12-01T21:16:49.366Z,-10.43
2022-12-01T21:19:31.687Z,-10.46
2022-12-01T21:21:59.454Z,-10.45
2022-12-01T21:24:33.505Z,-10.56
2022-12-01T21:27:12.880Z,-10.34
2022-12-01T21:29:50.322Z,-10.30
2022-12-01T21:32:19.214Z,-11.55
2022-12-01T21:34:47.827Z,-10.20
2022-12-01T21:37:25.675Z,-11.23
2022-12-01T21:39:56.108Z,-10.20
2022-12-01T21:42:27.616Z,-10.18
2022-12-01T21:44:56.910Z,-10.15
2022-12-01T21:47:27.215Z,-10.16
2022-12-01T21:49:57.741Z,-10.20
2022-12-01T21:52:33.382Z,-10.31
2022-12-01T21:55:23.588Z,-10.42
2022-12-01T21:57:53.527Z,-10.49
2022-12-01T22:00:35.573Z,-10.64
2022-12-01T22:03:09.051Z,-10.55
2022-12-01T22:05:39.679Z,-10.51
2022-12-01T22:08:12.781Z,-10.50
2022-12-01T22:11:18.893Z,-11.31
2022-12-01T22:14:08.826Z,-10.75
2022-12-01T22:16:40.584Z,-10.81
2022-12-01T22:20:00.320Z,-10.81
2022-12-01T22:22:29.891Z,-10.88
2022-12-01T22:25:01.812Z,-10.87
2022-12-01T22:27:37.205Z,-10.86
2022-12-01T22:30:07.767Z,-10.80
2022-12-01T22:32:44.478Z,-10.82
2022-12-01T22:35:19.925Z,-10.80
2022-12-01T22:38:08.791Z,-10.77
2022-12-01T22:40:48.653Z,-10.71
2022-12-01T22:43:16.030Z,-10.68
2022-12-01T22:45:52.409Z,-10.64
2022-12-01T22:48:35.308Z,-10.60
2022-12-01T22:51:22.291Z,-10.63
2022-12-01T22:53:50.278Z,-11.12
2022-12-01T22:57:01.080Z,-10.73
2022-12-01T22:59:34.533Z,-10.86
2022-12-01T23:02:14.344Z,-10.86
2022-12-01T23:04:45.376Z,-10.85
2022-12-01T23:07:27.951Z,-10.78
2022-12-01T23:10:21.405Z,-10.76
2022-12-01T23:12:51.373Z,-10.97
2022-12-01T23:15:33.896Z,-10.97
2022-12-01T23:18:24.151Z,-10.92
2022-12-01T23:20:57.032Z,-11.01
2022-12-01T23:23:31.990Z,-11.09
2022-12-01T23:26:01.575Z,-10.77
2022-12-01T23:28:30.029Z,-10.80
2022-12-01T23:30:59.856Z,-11.06
2022-12-01T23:33:32.905Z,-10.97
2022-12-01T23:36:03.151Z,-10.97
2022-12-01T23:38:43.184Z,-10.98
2022-12-01T23:41:38.784Z,-10.96
2022-12-01T23:44:39.744Z,-10.93
2022-12-01T23:47:18.606Z,-10.89
2022-12-01T23:49:47.606Z,-10.84
2022-12-01T23:52:19.982Z,-10.84
2022-12-01T23:54:48.138Z,-10.61
2022-12-01T23:57:24.399Z,-10.63
2022-12-01T23:59:56.465Z,-10.61
